createdAt,value
2022-12-25T00:00:39.940Z,96.39
2022-12-25T00:03:07.187Z,96.22
2022-12-25T00:05:34.084Z,96.55
2022-12-25T00:08:00.502Z,96.22
2022-12-25T00:10:26.945Z,96.20
2022-12-25T00:12:53.396Z,96.35
2022-12-25T00:15:19.853Z,96.24
2022-12-25T00:17:46.268Z,96.17
2022-12-25T00:20:12.909Z,96.38
2022-12-25T00:22:39.396Z,96.40
2022-12-25T00:25:06.013Z,96.44
2022-12-25T00:27:33.880Z,96.21
2022-12-25T00:30:00.969Z,96.23
2022-12-25T00:32:27.623Z,96.14
2022-12-25T00:34:54.041Z,96.16
2022-12-25T00:37:20.451Z,96.32
2022-12-25T00:39:48.877Z,95.97
2022-12-25T00:42:21.426Z,96.48
2022-12-25T00:44:48.779Z,96.24
2022-12-25T00:47:15.709Z,96.18
2022-12-25T00:49:42.543Z,96.06
2022-12-25T00:52:09.557Z,95.53
2022-12-25T00:54:36.246Z,96.17
2022-12-25T00:57:02.824Z,96.03
2022-12-25T00:59:34.479Z,95.38
2022-12-25T01:02:21.607Z,95.93
2022-12-25T01:04:49.451Z,95.67
2022-12-25T01:07:19.161Z,96.08
2022-12-25T01:10:04.802Z,95.57
2022-12-25T01:12:33.266Z,95.82
2022-12-25T01:14:59.755Z,95.51
2022-12-25T01:17:26.379Z,96.08
2022-12-25T01:19:52.808Z,96.27
2022-12-25T01:22:19.902Z,95.69
2022-12-25T01:24:46.403Z,95.68
2022-12-25T01:27:12.871Z,96.11
2022-12-25T01:29:39.449Z,96.07
2022-12-25T01:32:06.406Z,96.11
2022-12-25T01:34:32.981Z,95.64
2022-12-25T01:36:59.376Z,95.80
2022-12-25T01:39:26.739Z,95.79
2022-12-25T01:41:53.199Z,96.02
2022-12-25T01:44:19.617Z,95.65
2022-12-25T01:46:46.081Z,95.73
2022-12-25T01:49:21.078Z,95.75
2022-12-25T01:51:51.665Z,95.69
2022-12-25T01:54:25.136Z,95.89
2022-12-25T01:56:56.076Z,96.14
2022-12-25T01:59:26.128Z,95.76
2022-12-25T02:01:53.203Z,95.58
2022-12-25T02:04:38.592Z,95.32
2022-12-25T02:07:19.866Z,95.65
2022-12-25T02:09:47.019Z,95.90
2022-12-25T02:12:22.009Z,95.79
2022-12-25T02:14:50.633Z,95.47
2022-12-25T02:17:38.670Z,95.52
2022-12-25T02:20:23.787Z,95.70
2022-12-25T02:23:27.580Z,95.13
2022-12-25T02:26:03.135Z,95.51
2022-12-25T02:28:37.133Z,95.23
2022-12-25T02:31:12.320Z,95.69
2022-12-25T02:34:05.409Z,95.59
2022-12-25T02:36:41.405Z,96.12
2022-12-25T02:39:39.489Z,96.25
2022-12-25T02:42:12.481Z,96.36
2022-12-25T02:45:02.113Z,96.37
2022-12-25T02:47:47.831Z,96.11
2022-12-25T02:50:34.129Z,96.35
2022-12-25T02:53:22.074Z,96.88
2022-12-25T02:56:08.533Z,96.57
2022-12-25T02:58:57.774Z,96.51
2022-12-25T03:01:48.539Z,96.54
2022-12-25T03:04:38.655Z,96.78
2022-12-25T03:07:08.009Z,96.76
2022-12-25T03:09:59.954Z,96.92
2022-12-25T03:12:46.176Z,97.30
2022-12-25T03:15:31.972Z,96.77
2022-12-25T03:18:02.989Z,96.58
2022-12-25T03:20:48.884Z,97.02
2022-12-25T03:23:38.978Z,97.28
2022-12-25T03:26:24.529Z,96.85
2022-12-25T03:28:51.007Z,97.42
2022-12-25T03:31:25.647Z,97.35
2022-12-25T03:34:27.655Z,97.50
2022-12-25T03:37:23.402Z,96.79
2022-12-25T03:40:33.881Z,97.50
2022-12-25T03:43:43.191Z,97.49
2022-12-25T03:46:34.547Z,97.14
2022-12-25T03:49:32.883Z,97.83
2022-12-25T03:52:20.685Z,97.90
2022-12-25T03:55:07.938Z,98.00
2022-12-25T03:57:53.819Z,98.04
2022-12-25T04:00:39.021Z,98.17
2022-12-25T04:03:23.970Z,97.86
2022-12-25T04:06:08.793Z,98.05
2022-12-25T04:08:53.724Z,97.96
2022-12-25T04:11:38.503Z,98.41
2022-12-25T04:14:23.369Z,98.33
2022-12-25T04:17:08.328Z,98.60
2022-12-25T04:19:53.323Z,98.62
2022-12-25T04:22:38.525Z,98.68
2022-12-25T04:25:23.875Z,98.54
2022-12-25T04:28:08.716Z,98.59
2022-12-25T04:30:53.494Z,98.23
2022-12-25T04:33:38.624Z,98.72
2022-12-25T04:36:12.358Z,98.60
2022-12-25T04:38:40.589Z,98.76
2022-12-25T04:41:11.787Z,98.71
2022-12-25T04:43:38.505Z,98.43
2022-12-25T04:46:05.777Z,98.29
2022-12-25T04:48:35.069Z,98.74
2022-12-25T04:51:19.317Z,98.76
2022-12-25T04:53:46.191Z,98.68
2022-12-25T04:56:13.068Z,98.56
2022-12-25T04:58:39.742Z,98.14
2022-12-25T05:01:06.288Z,98.46
2022-12-25T05:03:33.983Z,98.35
2022-12-25T05:06:01.597Z,98.15
2022-12-25T05:08:30.086Z,98.80
2022-12-25T05:10:56.575Z,98.14
2022-12-25T05:13:23.261Z,98.24
2022-12-25T05:15:49.952Z,98.14
2022-12-25T05:18:16.745Z,98.47
2022-12-25T05:20:43.396Z,98.55
2022-12-25T05:23:12.029Z,98.38
2022-12-25T05:25:39.757Z,98.44
2022-12-25T05:28:06.862Z,98.82
2022-12-25T05:30:34.901Z,98.64
2022-12-25T05:33:02.168Z,98.74
2022-12-25T05:35:28.689Z,98.48
2022-12-25T05:37:55.112Z,99.22
2022-12-25T05:40:21.548Z,98.81
2022-12-25T05:42:47.954Z,99.33
2022-12-25T05:45:14.443Z,99.04
2022-12-25T05:47:40.835Z,99.12
2022-12-25T05:50:07.982Z,99.19
2022-12-25T05:52:34.594Z,99.27
2022-12-25T05:55:01.125Z,99.17
2022-12-25T05:57:31.383Z,99.41
2022-12-25T05:59:58.217Z,99.21
2022-12-25T06:02:25.366Z,99.26
2022-12-25T06:04:52.011Z,100.00
2022-12-25T06:07:18.488Z,99.64
2022-12-25T06:09:44.903Z,100.00
2022-12-25T06:12:11.341Z,100.00
2022-12-25T06:14:37.797Z,100.00
2022-12-25T06:17:04.361Z,99.86
2022-12-25T06:19:30.909Z,100.00
2022-12-25T06:21:57.333Z,99.67
2022-12-25T06:24:23.911Z,99.67
2022-12-25T06:26:50.572Z,99.59
2022-12-25T06:29:17.419Z,100.00
2022-12-25T06:31:43.857Z,100.00
2022-12-25T06:34:10.342Z,99.84
2022-12-25T06:36:38.035Z,99.65
2022-12-25T06:39:04.654Z,100.00
2022-12-25T06:41:31.135Z,100.00
2022-12-25T06:44:00.205Z,100.00
2022-12-25T06:46:28.867Z,100.00
2022-12-25T06:48:56.765Z,100.00
2022-12-25T06:51:26.447Z,100.00
2022-12-25T06:53:54.473Z,100.00
2022-12-25T06:56:24.228Z,100.00
2022-12-25T06:58:56.096Z,100.00
2022-12-25T07:01:28.146Z,100.00
2022-12-25T07:03:58.372Z,100.00
2022-12-25T07:06:24.973Z,100.00
2022-12-25T07:08:51.808Z,100.00
2022-12-25T07:11:18.892Z,100.00
2022-12-25T07:13:45.352Z,100.00
2022-12-25T07:16:12.628Z,100.00
2022-12-25T07:18:39.500Z,100.00
2022-12-25T07:21:16.965Z,100.00
2022-12-25T07:23:44.588Z,100.00
2022-12-25T07:26:12.093Z,100.00
2022-12-25T07:28:39.387Z,100.00
2022-12-25T07:31:09.632Z,100.00
2022-12-25T07:33:36.308Z,100.00
2022-12-25T07:36:03.437Z,100.00
2022-12-25T07:38:30.205Z,100.00
2022-12-25T07:40:56.899Z,100.00
2022-12-25T07:43:23.395Z,100.00
2022-12-25T07:45:58.742Z,100.00
2022-12-25T07:48:27.024Z,100.00
2022-12-25T07:51:05.366Z,100.00
2022-12-25T07:53:32.925Z,100.00
2022-12-25T07:56:01.960Z,100.00
2022-12-25T07:58:29.564Z,100.00
2022-12-25T08:01:01.956Z,100.00
2022-12-25T08:03:28.625Z,100.00
2022-12-25T08:06:02.549Z,100.00
2022-12-25T08:08:29.559Z,100.00
2022-12-25T08:10:56.011Z,100.00
2022-12-25T08:13:22.423Z,100.00
2022-12-25T08:15:49.078Z,100.00
2022-12-25T08:18:15.718Z,100.00
2022-12-25T08:20:42.263Z,100.00
2022-12-25T08:23:09.014Z,100.00
2022-12-25T08:25:35.476Z,100.00
2022-12-25T08:28:01.959Z,99.80
2022-12-25T08:30:28.688Z,99.86
2022-12-25T08:32:55.608Z,100.00
2022-12-25T08:35:22.076Z,99.85
2022-12-25T08:37:48.481Z,99.87
2022-12-25T08:40:15.083Z,99.62
2022-12-25T08:42:41.470Z,99.64
2022-12-25T08:45:08.595Z,99.57
2022-12-25T08:47:34.990Z,99.76
2022-12-25T08:50:01.502Z,99.14
2022-12-25T08:52:28.873Z,99.43
2022-12-25T08:54:55.311Z,99.64
2022-12-25T08:57:21.695Z,99.60
2022-12-25T08:59:48.130Z,99.67
2022-12-25T09:02:16.805Z,99.29
2022-12-25T09:04:45.773Z,99.40
2022-12-25T09:07:12.234Z,99.50
2022-12-25T09:09:38.674Z,99.46
2022-12-25T09:12:05.205Z,99.20
2022-12-25T09:14:31.690Z,99.33
2022-12-25T09:16:58.254Z,99.53
2022-12-25T09:19:24.668Z,99.44
2022-12-25T09:21:51.054Z,99.20
2022-12-25T09:24:17.476Z,98.98
2022-12-25T09:26:43.932Z,99.49
2022-12-25T09:29:10.445Z,99.12
2022-12-25T09:31:36.881Z,99.12
2022-12-25T09:34:03.387Z,98.35
2022-12-25T09:36:29.872Z,98.12
2022-12-25T09:38:56.373Z,97.94
2022-12-25T09:41:33.348Z,97.44
2022-12-25T09:44:21.354Z,97.01
2022-12-25T09:46:53.720Z,97.05
2022-12-25T09:49:38.759Z,96.23
2022-12-25T09:52:11.779Z,96.38
2022-12-25T09:54:44.395Z,95.52
2022-12-25T09:57:12.919Z,95.59
2022-12-25T09:59:40.061Z,95.18
2022-12-25T10:02:41.251Z,94.19
2022-12-25T10:05:37.951Z,94.02
2022-12-25T10:08:16.595Z,93.74
2022-12-25T10:10:51.877Z,92.57
2022-12-25T10:13:52.598Z,92.29
2022-12-25T10:16:31.064Z,92.08
2022-12-25T10:19:06.421Z,92.04
2022-12-25T10:21:33.064Z,92.08
2022-12-25T10:24:16.556Z,92.32
2022-12-25T10:26:43.116Z,92.93
2022-12-25T10:29:14.590Z,93.20
2022-12-25T10:31:41.916Z,93.61
2022-12-25T10:34:12.052Z,94.29
2022-12-25T10:36:38.518Z,94.33
2022-12-25T10:39:04.972Z,94.86
2022-12-25T10:41:59.292Z,94.18
2022-12-25T10:44:26.360Z,94.46
2022-12-25T10:46:55.809Z,94.90
2022-12-25T10:49:25.134Z,94.44
2022-12-25T10:51:52.168Z,94.24
2022-12-25T10:54:31.405Z,94.55
2022-12-25T10:57:13.154Z,94.50
2022-12-25T10:59:47.843Z,95.02
2022-12-25T11:02:21.645Z,94.51
2022-12-25T11:04:48.652Z,94.72
2022-12-25T11:07:24.312Z,94.83
2022-12-25T11:10:02.668Z,94.37
2022-12-25T11:12:44.224Z,94.79
2022-12-25T11:15:40.401Z,94.93
2022-12-25T11:18:24.164Z,94.45
2022-12-25T11:20:52.735Z,94.27
2022-12-25T11:23:21.652Z,94.35
2022-12-25T11:26:01.515Z,93.40
2022-12-25T11:28:30.537Z,92.99
2022-12-25T11:31:01.293Z,92.02
2022-12-25T11:33:35.447Z,92.04
2022-12-25T11:36:08.747Z,92.00
2022-12-25T11:38:35.181Z,91.77
2022-12-25T11:41:04.394Z,91.68
2022-12-25T11:43:46.735Z,91.57
2022-12-25T11:46:31.337Z,91.22
2022-12-25T11:49:02.137Z,90.88
2022-12-25T11:51:34.901Z,90.57
2022-12-25T11:54:17.831Z,90.32
2022-12-25T11:56:44.355Z,90.14
2022-12-25T11:59:27.661Z,89.39
2022-12-25T12:02:18.869Z,89.36
2022-12-25T12:04:50.813Z,88.92
2022-12-25T12:07:25.210Z,87.74
2022-12-25T12:09:56.325Z,86.10
2022-12-25T12:12:22.678Z,86.24
2022-12-25T12:15:15.269Z,83.27
2022-12-25T12:17:41.655Z,82.95
2022-12-25T12:20:28.247Z,79.36
2022-12-25T12:22:55.006Z,77.43
2022-12-25T12:25:22.222Z,76.33
2022-12-25T12:27:59.781Z,76.20
2022-12-25T12:30:32.254Z,76.44
2022-12-25T12:33:02.145Z,76.62
2022-12-25T12:35:34.959Z,76.63
2022-12-25T12:38:11.922Z,77.28
2022-12-25T12:41:07.101Z,77.59
2022-12-25T12:43:43.006Z,76.93
2022-12-25T12:46:30.651Z,75.78
2022-12-25T12:49:21.693Z,75.19
2022-12-25T12:51:48.435Z,74.47
2022-12-25T12:54:24.086Z,73.99
2022-12-25T12:57:05.138Z,73.86
2022-12-25T12:59:43.442Z,72.91
2022-12-25T13:02:28.871Z,69.81
2022-12-25T13:05:35.720Z,70.03
2022-12-25T13:08:14.544Z,69.81
2022-12-25T13:10:46.749Z,67.74
2022-12-25T13:13:20.076Z,67.33
2022-12-25T13:15:49.699Z,68.68
2022-12-25T13:18:17.412Z,69.60
2022-12-25T13:20:54.865Z,71.04
2022-12-25T13:23:29.346Z,71.36
2022-12-25T13:25:58.392Z,70.71
2022-12-25T13:28:27.316Z,71.17
2022-12-25T13:30:53.949Z,70.52
2022-12-25T13:33:20.623Z,70.45
2022-12-25T13:35:47.363Z,70.47
2022-12-25T13:38:16.962Z,70.20
2022-12-25T13:41:14.544Z,69.70
2022-12-25T13:43:43.184Z,69.88
2022-12-25T13:46:14.428Z,69.17
2022-12-25T13:48:42.040Z,68.49
2022-12-25T13:51:16.693Z,68.07
2022-12-25T13:53:43.819Z,67.76
2022-12-25T13:56:15.001Z,67.70
2022-12-25T13:58:42.018Z,68.29
2022-12-25T14:01:11.667Z,68.43
2022-12-25T14:03:45.367Z,68.49
2022-12-25T14:06:29.564Z,68.42
2022-12-25T14:08:58.396Z,69.07
2022-12-25T14:11:27.336Z,69.46
2022-12-25T14:13:59.862Z,69.26
2022-12-25T14:16:27.186Z,69.38
2022-12-25T14:18:55.621Z,69.26
2022-12-25T14:21:34.935Z,69.34
2022-12-25T14:24:01.605Z,69.46
2022-12-25T14:26:31.632Z,69.76
2022-12-25T14:29:15.602Z,70.44
2022-12-25T14:31:45.890Z,70.28
2022-12-25T14:34:24.200Z,70.84
2022-12-25T14:36:52.325Z,71.19
2022-12-25T14:39:37.016Z,72.20
2022-12-25T14:42:21.741Z,73.49
2022-12-25T14:45:03.926Z,74.44
2022-12-25T14:47:32.340Z,75.60
2022-12-25T14:49:59.874Z,76.28
2022-12-25T14:52:34.587Z,77.00
2022-12-25T14:55:04.739Z,77.92
2022-12-25T14:57:38.401Z,78.55
2022-12-25T15:00:24.375Z,78.39
2022-12-25T15:02:54.401Z,79.23
2022-12-25T15:05:30.380Z,79.67
2022-12-25T15:08:10.136Z,80.19
2022-12-25T15:13:26.131Z,81.10
2022-12-25T15:16:04.156Z,82.04
2022-12-25T15:18:36.374Z,82.21
2022-12-25T15:21:02.988Z,82.90
2022-12-25T15:23:29.476Z,83.30
2022-12-25T15:25:55.926Z,83.46
2022-12-25T15:28:22.398Z,83.96
2022-12-25T15:30:49.899Z,83.79
2022-12-25T15:33:18.489Z,84.41
2022-12-25T15:35:45.625Z,84.80
2022-12-25T15:38:13.356Z,85.73
2022-12-25T15:40:40.815Z,86.00
2022-12-25T15:43:14.484Z,86.48
2022-12-25T15:45:54.999Z,86.48
2022-12-25T15:48:21.427Z,86.47
2022-12-25T15:50:47.875Z,86.73
2022-12-25T15:53:14.408Z,86.89
2022-12-25T15:55:41.017Z,86.51
2022-12-25T15:58:12.277Z,86.81
2022-12-25T16:00:38.723Z,86.89
2022-12-25T16:03:05.223Z,86.18
2022-12-25T16:05:31.739Z,85.88
2022-12-25T16:07:58.310Z,85.92
2022-12-25T16:10:25.034Z,85.90
2022-12-25T16:12:51.465Z,86.09
2022-12-25T16:15:18.036Z,86.00
2022-12-25T16:17:44.529Z,85.48
2022-12-25T16:20:11.291Z,85.36
2022-12-25T16:22:40.383Z,84.55
2022-12-25T16:25:18.830Z,84.26
2022-12-25T16:27:45.922Z,84.33
2022-12-25T16:30:15.085Z,83.65
2022-12-25T16:32:45.270Z,83.85
2022-12-25T16:35:12.254Z,83.66
2022-12-25T16:37:39.428Z,82.56
2022-12-25T16:40:09.472Z,82.51
2022-12-25T16:42:37.361Z,82.94
2022-12-25T16:45:04.292Z,81.98
2022-12-25T16:47:30.725Z,82.23
2022-12-25T16:49:57.154Z,81.62
2022-12-25T16:52:23.644Z,81.88
2022-12-25T16:54:50.096Z,81.33
2022-12-25T16:57:16.533Z,81.52
2022-12-25T16:59:43.347Z,81.56
2022-12-25T17:02:15.602Z,81.45
2022-12-25T17:04:42.826Z,81.16
2022-12-25T17:07:09.372Z,81.01
2022-12-25T17:09:42.095Z,80.28
2022-12-25T17:12:10.409Z,79.56
2022-12-25T17:14:36.839Z,78.88
2022-12-25T17:17:03.507Z,79.06
2022-12-25T17:19:30.108Z,79.29
2022-12-25T17:21:57.223Z,79.63
2022-12-25T17:24:23.741Z,79.80
2022-12-25T17:26:50.152Z,80.00
2022-12-25T17:29:21.615Z,80.19
2022-12-25T17:31:48.962Z,80.43
2022-12-25T17:34:15.448Z,80.06
2022-12-25T17:36:42.016Z,80.14
2022-12-25T17:39:09.783Z,79.67
2022-12-25T17:41:36.324Z,79.52
2022-12-25T17:44:02.853Z,79.34
2022-12-25T17:46:30.614Z,79.11
2022-12-25T17:48:58.810Z,79.28
2022-12-25T17:51:26.540Z,79.35
2022-12-25T17:53:55.808Z,78.87
2022-12-25T17:56:24.015Z,78.88
2022-12-25T17:58:52.570Z,79.57
2022-12-25T18:01:20.181Z,79.25
2022-12-25T18:03:47.172Z,78.72
2022-12-25T18:06:19.241Z,78.67
2022-12-25T18:08:46.718Z,78.53
2022-12-25T18:11:21.665Z,78.55
2022-12-25T18:13:51.874Z,78.95
2022-12-25T18:16:20.485Z,78.82
2022-12-25T18:18:51.880Z,78.39
2022-12-25T18:21:19.173Z,78.77
2022-12-25T18:23:46.318Z,78.75
2022-12-25T18:26:13.379Z,78.54
2022-12-25T18:28:39.974Z,78.95
2022-12-25T18:31:18.833Z,79.31
2022-12-25T18:33:45.836Z,79.10
2022-12-25T18:36:14.452Z,79.52
2022-12-25T18:38:41.415Z,79.51
2022-12-25T18:41:09.574Z,79.78
2022-12-25T18:43:52.988Z,79.36
2022-12-25T18:46:24.032Z,79.43
2022-12-25T18:48:51.481Z,78.92
2022-12-25T18:51:18.007Z,78.60
2022-12-25T18:53:44.948Z,78.80
2022-12-25T18:56:15.155Z,78.63
2022-12-25T18:58:42.698Z,78.32
2022-12-25T19:01:11.220Z,78.49
2022-12-25T19:03:37.655Z,78.32
2022-12-25T19:06:04.861Z,78.40
2022-12-25T19:08:31.328Z,78.68
2022-12-25T19:10:59.120Z,78.61
2022-12-25T19:13:26.364Z,78.56
2022-12-25T19:15:52.935Z,79.07
2022-12-25T19:18:19.399Z,78.91
2022-12-25T19:20:47.227Z,78.93
2022-12-25T19:23:13.621Z,78.86
2022-12-25T19:25:40.515Z,79.10
2022-12-25T19:28:06.972Z,79.45
2022-12-25T19:30:33.398Z,79.18
2022-12-25T19:32:59.780Z,79.15
2022-12-25T19:35:26.212Z,79.68
2022-12-25T19:37:52.722Z,79.53
2022-12-25T19:40:19.219Z,80.07
2022-12-25T19:42:45.721Z,80.11
2022-12-25T19:45:12.209Z,80.31
2022-12-25T19:47:38.608Z,80.27
2022-12-25T19:50:05.494Z,80.82
2022-12-25T19:52:31.919Z,80.92
2022-12-25T19:54:58.337Z,81.52
2022-12-25T19:57:24.771Z,82.17
2022-12-25T19:59:51.208Z,82.38
2022-12-25T20:02:17.745Z,82.66
2022-12-25T20:04:44.340Z,83.11
2022-12-25T20:07:10.837Z,83.31
2022-12-25T20:09:37.266Z,83.61
2022-12-25T20:12:03.883Z,83.98
2022-12-25T20:14:30.293Z,84.15
2022-12-25T20:16:57.612Z,84.14
2022-12-25T20:19:24.123Z,84.63
2022-12-25T20:21:50.532Z,84.49
2022-12-25T20:24:16.997Z,84.62
2022-12-25T20:26:46.537Z,85.04
2022-12-25T20:29:14.665Z,85.03
2022-12-25T20:31:41.177Z,85.15
2022-12-25T20:34:10.156Z,85.54
2022-12-25T20:36:38.092Z,85.74
2022-12-25T20:39:08.531Z,85.66
2022-12-25T20:41:35.571Z,85.59
2022-12-25T20:44:04.034Z,85.78
2022-12-25T20:46:30.564Z,85.63
2022-12-25T20:48:57.056Z,85.90
2022-12-25T20:51:25.934Z,85.85
2022-12-25T20:53:53.384Z,86.45
2022-12-25T20:56:22.658Z,85.96
2022-12-25T20:58:53.559Z,86.41
2022-12-25T21:01:20.108Z,86.31
2022-12-25T21:03:46.778Z,86.70
2022-12-25T21:06:13.229Z,86.54
2022-12-25T21:08:41.003Z,86.34
2022-12-25T21:11:08.538Z,86.56
2022-12-25T21:13:38.171Z,86.58
2022-12-25T21:16:06.825Z,86.89
2022-12-25T21:18:33.743Z,86.66
2022-12-25T21:21:04.660Z,87.04
2022-12-25T21:23:33.192Z,86.94
2022-12-25T21:25:59.699Z,87.16
2022-12-25T21:28:27.128Z,87.24
2022-12-25T21:30:53.597Z,87.24
2022-12-25T21:33:39.536Z,87.19
2022-12-25T21:36:11.444Z,87.49
2022-12-25T21:38:38.204Z,87.84
2022-12-25T21:41:10.461Z,87.51
2022-12-25T21:43:39.048Z,87.47
2022-12-25T21:46:07.930Z,87.75
2022-12-25T21:48:36.343Z,88.21
2022-12-25T21:51:26.782Z,88.06
2022-12-25T21:53:53.204Z,88.20
2022-12-25T21:56:19.646Z,88.91
2022-12-25T21:58:47.052Z,88.75
2022-12-25T22:01:17.145Z,89.07
2022-12-25T22:03:44.397Z,88.98
2022-12-25T22:06:30.488Z,88.77
2022-12-25T22:08:57.212Z,89.03
2022-12-25T22:11:43.719Z,89.16
2022-12-25T22:14:51.405Z,89.40
2022-12-25T22:17:52.975Z,89.17
2022-12-25T22:20:36.847Z,88.88
2022-12-25T22:23:03.773Z,89.17
2022-12-25T22:25:30.423Z,89.29
2022-12-25T22:27:57.418Z,89.63
2022-12-25T22:30:26.819Z,89.67
2022-12-25T22:32:53.551Z,90.35
2022-12-25T22:35:20.618Z,90.66
2022-12-25T22:37:48.113Z,90.47
2022-12-25T22:40:16.871Z,91.17
2022-12-25T22:42:43.882Z,90.70
2022-12-25T22:45:11.555Z,91.43
2022-12-25T22:47:38.188Z,91.68
2022-12-25T22:50:05.115Z,91.36
2022-12-25T22:52:31.686Z,91.84
2022-12-25T22:54:58.143Z,91.43
2022-12-25T22:57:24.627Z,91.86
2022-12-25T22:59:52.763Z,91.67
2022-12-25T23:02:19.652Z,91.94
2022-12-25T23:04:46.176Z,91.94
2022-12-25T23:07:14.328Z,91.96
2022-12-25T23:09:41.725Z,91.87
2022-12-25T23:12:28.123Z,92.06
2022-12-25T23:14:54.962Z,91.92
2022-12-25T23:17:40.022Z,92.61
2022-12-25T23:20:26.007Z,92.30
2022-12-25T23:23:10.829Z,91.97
2022-12-25T23:25:55.651Z,91.67
2022-12-25T23:28:40.524Z,91.68
2022-12-25T23:31:07.718Z,91.26
2022-12-25T23:33:34.172Z,91.15
2022-12-25T23:36:00.799Z,90.97
2022-12-25T23:38:27.391Z,91.01
2022-12-25T23:40:53.802Z,90.67
2022-12-25T23:43:20.216Z,90.42
2022-12-25T23:45:46.644Z,89.80
2022-12-25T23:48:13.038Z,89.41
2022-12-25T23:50:39.446Z,88.97
2022-12-25T23:53:05.857Z,88.24
2022-12-25T23:55:33.511Z,87.80
2022-12-25T23:57:59.953Z,87.36
